createdAt,value
2022-09-12T00:01:56.768Z,89
2022-09-12T00:05:21.922Z,89
2022-09-12T00:08:47.124Z,89
2022-09-12T00:12:12.322Z,89
2022-09-12T00:15:37.497Z,88
2022-09-12T00:19:02.667Z,88
2022-09-12T00:22:27.837Z,89
2022-09-12T00:25:53.010Z,89
2022-09-12T00:29:18.219Z,89
2022-09-12T00:32:43.375Z,90
2022-09-12T00:36:08.552Z,90
2022-09-12T00:39:33.714Z,89
2022-09-12T00:42:58.899Z,89
2022-09-12T00:46:24.106Z,89
2022-09-12T00:49:49.265Z,90
2022-09-12T00:53:14.442Z,90
2022-09-12T00:56:39.605Z,90
2022-09-12T01:00:04.796Z,90
2022-09-12T01:03:29.992Z,90
2022-09-12T01:06:55.152Z,90
2022-09-12T01:10:20.910Z,90
2022-09-12T01:13:46.092Z,90
2022-09-12T01:17:11.268Z,91
2022-09-12T01:20:36.474Z,90
2022-09-12T01:24:01.633Z,90
2022-09-12T01:27:26.835Z,90
2022-09-12T01:30:52.005Z,90
2022-09-12T01:34:17.204Z,90
2022-09-12T01:37:42.412Z,90
2022-09-12T01:41:07.561Z,89
2022-09-12T01:44:32.751Z,90
2022-09-12T01:47:57.922Z,89
2022-09-12T01:51:23.124Z,89
2022-09-12T01:54:48.311Z,89
2022-09-12T01:58:13.460Z,89
2022-09-12T02:01:38.642Z,90
2022-09-12T02:05:03.819Z,89
2022-09-12T02:08:29.003Z,90
2022-09-12T02:11:54.199Z,89
2022-09-12T02:15:19.336Z,89
2022-09-12T02:18:44.553Z,89
2022-09-12T02:22:09.670Z,89
2022-09-12T02:25:34.852Z,89
2022-09-12T02:29:00.061Z,89
2022-09-12T02:32:25.220Z,89
2022-09-12T02:35:50.393Z,88
2022-09-12T02:39:15.562Z,88
2022-09-12T02:42:40.782Z,88
2022-09-12T02:46:06.021Z,89
2022-09-12T02:49:31.125Z,88
2022-09-12T02:52:56.296Z,87
2022-09-12T02:56:21.466Z,88
2022-09-12T02:59:46.632Z,88
2022-09-12T03:03:11.840Z,88
2022-09-12T03:06:36.988Z,89
2022-09-12T03:10:02.183Z,89
2022-09-12T03:13:27.352Z,89
2022-09-12T03:16:52.535Z,88
2022-09-12T03:20:17.734Z,88
2022-09-12T03:23:42.866Z,88
2022-09-12T03:27:08.068Z,88
2022-09-12T03:30:33.299Z,88
2022-09-12T03:33:58.451Z,88
2022-09-12T03:37:23.655Z,87
2022-09-12T03:40:52.796Z,87
2022-09-12T03:44:13.993Z,87
2022-09-12T03:47:39.195Z,87
2022-09-12T03:51:04.400Z,87
2022-09-12T03:54:29.598Z,88
2022-09-12T03:57:54.740Z,88
2022-09-12T04:01:19.983Z,88
2022-09-12T04:04:45.112Z,87
2022-09-12T04:08:10.310Z,87
2022-09-12T04:11:35.502Z,87
2022-09-12T04:15:00.666Z,88
2022-09-12T04:18:25.852Z,88
2022-09-12T04:21:50.999Z,88
2022-09-12T04:25:16.176Z,88
2022-09-12T04:28:41.376Z,88
2022-09-12T04:32:06.521Z,88
2022-09-12T04:35:31.677Z,89
2022-09-12T04:38:56.894Z,88
2022-09-12T04:42:22.085Z,88
2022-09-12T04:45:47.319Z,88
2022-09-12T04:49:12.440Z,88
2022-09-12T04:52:37.650Z,87
2022-09-12T04:56:02.858Z,87
2022-09-12T04:59:28.063Z,88
2022-09-12T05:02:53.265Z,88
2022-09-12T05:06:18.456Z,88
2022-09-12T05:09:43.684Z,88
2022-09-12T05:13:08.899Z,89
2022-09-12T05:16:34.120Z,89
2022-09-12T05:19:59.331Z,88
2022-09-12T05:23:24.515Z,89
2022-09-12T05:26:49.715Z,89
2022-09-12T05:30:14.891Z,89
2022-09-12T05:33:40.071Z,90
2022-09-12T05:37:05.255Z,91
2022-09-12T05:40:30.388Z,91
2022-09-12T05:43:55.599Z,91
2022-09-12T05:47:20.819Z,91
2022-09-12T05:50:46.092Z,91
2022-09-12T05:54:11.312Z,91
2022-09-12T05:57:36.478Z,91
2022-09-12T06:01:01.702Z,91
2022-09-12T06:04:26.826Z,90
2022-09-12T06:07:51.987Z,91
2022-09-12T06:11:17.170Z,91
2022-09-12T06:14:42.350Z,91
2022-09-12T06:18:07.533Z,91
2022-09-12T06:21:32.712Z,92
2022-09-12T06:24:58.181Z,92
2022-09-12T06:28:23.116Z,92
2022-09-12T06:31:48.285Z,92
2022-09-12T06:35:13.483Z,92
2022-09-12T06:38:38.663Z,93
2022-09-12T06:42:03.835Z,93
2022-09-12T06:45:29.069Z,93
2022-09-12T06:48:54.247Z,93
2022-09-12T06:52:19.426Z,93
2022-09-12T06:55:44.613Z,93
2022-09-12T06:59:09.800Z,93
2022-09-12T07:02:35.048Z,93
2022-09-12T07:06:00.186Z,93
2022-09-12T07:09:25.387Z,94
2022-09-12T07:12:50.592Z,94
2022-09-12T07:16:19.372Z,93
2022-09-12T07:19:41.047Z,93
2022-09-12T07:23:06.233Z,93
2022-09-12T07:26:31.411Z,93
2022-09-12T07:29:56.597Z,93
2022-09-12T07:33:21.814Z,93
2022-09-12T07:36:47.069Z,94
2022-09-12T07:40:12.232Z,94
2022-09-12T07:43:37.390Z,94
2022-09-12T07:47:02.589Z,93
2022-09-12T07:50:27.791Z,93
2022-09-12T07:53:53.016Z,93
2022-09-12T07:57:18.144Z,93
2022-09-12T08:00:43.359Z,93
2022-09-12T08:04:08.595Z,93
2022-09-12T08:07:33.806Z,93
2022-09-12T08:10:59.059Z,92
2022-09-12T08:14:24.186Z,93
2022-09-12T08:17:49.391Z,94
2022-09-12T08:21:14.565Z,93
2022-09-12T08:24:39.738Z,93
2022-09-12T08:28:04.974Z,92
2022-09-12T08:31:30.137Z,92
2022-09-12T08:34:55.398Z,92
2022-09-12T08:38:20.614Z,91
2022-09-12T08:41:45.761Z,92
2022-09-12T08:45:10.970Z,92
2022-09-12T08:48:36.127Z,92
2022-09-12T08:52:01.402Z,92
2022-09-12T08:55:26.607Z,91
2022-09-12T08:58:51.847Z,91
2022-09-12T09:02:17.129Z,90
2022-09-12T09:05:42.268Z,91
2022-09-12T09:09:07.443Z,91
2022-09-12T09:12:32.661Z,91
2022-09-12T09:15:57.867Z,90
2022-09-12T09:19:23.100Z,90
2022-09-12T09:22:48.281Z,92
2022-09-12T09:26:13.541Z,90
2022-09-12T09:29:38.805Z,88
2022-09-12T09:33:04.007Z,87
2022-09-12T09:36:29.301Z,89
2022-09-12T09:39:54.590Z,88
2022-09-12T09:43:19.769Z,88
2022-09-12T09:46:44.937Z,85
2022-09-12T09:50:10.790Z,85
2022-09-12T09:53:36.042Z,85
2022-09-12T09:57:01.262Z,83
2022-09-12T10:00:26.509Z,82
2022-09-12T10:03:51.752Z,82
2022-09-12T10:07:16.998Z,83
2022-09-12T10:10:42.273Z,82
2022-09-12T10:14:07.491Z,80
2022-09-12T10:17:34.420Z,77
2022-09-12T10:20:57.958Z,77
2022-09-12T10:24:23.201Z,78
2022-09-12T10:27:48.417Z,79
2022-09-12T10:31:13.686Z,77
2022-09-12T10:34:38.802Z,76
2022-09-12T10:38:04.060Z,79
2022-09-12T10:41:29.219Z,76
2022-09-12T10:44:54.415Z,75
2022-09-12T10:48:19.622Z,78
2022-09-12T10:51:44.798Z,75
2022-09-12T10:55:09.964Z,75
2022-09-12T10:58:35.700Z,75
2022-09-12T11:02:00.979Z,74
2022-09-12T11:05:26.109Z,75
2022-09-12T11:08:51.265Z,74
2022-09-12T11:12:16.463Z,76
2022-09-12T11:15:41.667Z,75
2022-09-12T11:19:06.884Z,76
2022-09-12T11:22:32.255Z,77
2022-09-12T11:25:57.232Z,73
2022-09-12T11:29:22.465Z,75
2022-09-12T11:32:47.675Z,75
2022-09-12T11:36:12.896Z,72
2022-09-12T11:39:38.084Z,73
2022-09-12T11:43:03.225Z,72
2022-09-12T11:46:28.460Z,74
2022-09-12T11:49:53.577Z,73
2022-09-12T11:53:18.784Z,72
2022-09-12T11:56:43.934Z,74
2022-09-12T12:00:09.109Z,73
2022-09-12T12:03:34.387Z,72
2022-09-12T12:06:59.470Z,68
2022-09-12T12:10:24.664Z,68
2022-09-12T12:13:49.823Z,69
2022-09-12T12:17:14.994Z,70
2022-09-12T12:20:40.211Z,70
2022-09-12T12:24:05.446Z,71
2022-09-12T12:27:30.661Z,75
2022-09-12T12:30:55.884Z,73
2022-09-12T12:34:21.026Z,73
2022-09-12T12:37:46.223Z,71
2022-09-12T12:41:11.413Z,72
2022-09-12T12:44:36.612Z,74
2022-09-12T12:48:04.028Z,73
2022-09-12T12:51:26.914Z,75
2022-09-12T12:54:52.096Z,72
2022-09-12T12:58:17.278Z,75
2022-09-12T13:01:42.686Z,71
2022-09-12T13:05:07.784Z,71
2022-09-12T13:08:32.961Z,71
2022-09-12T13:11:58.146Z,70
2022-09-12T13:15:23.355Z,71
2022-09-12T13:18:48.667Z,69
2022-09-12T13:22:13.684Z,71
2022-09-12T13:25:38.876Z,71
2022-09-12T13:29:04.047Z,68
2022-09-12T13:32:29.247Z,70
2022-09-12T13:35:54.594Z,71
2022-09-12T13:39:19.754Z,68
2022-09-12T13:42:44.930Z,68
2022-09-12T13:46:10.193Z,71
2022-09-12T13:49:35.273Z,70
2022-09-12T13:53:00.487Z,71
2022-09-12T13:56:25.626Z,71
2022-09-12T13:59:50.850Z,73
2022-09-12T14:03:16.050Z,72
2022-09-12T14:06:41.291Z,72
2022-09-12T14:10:06.567Z,71
2022-09-12T14:13:31.717Z,70
2022-09-12T14:16:56.909Z,70
2022-09-12T14:20:22.074Z,70
2022-09-12T14:23:47.257Z,71
2022-09-12T14:27:12.448Z,69
2022-09-12T15:04:28.440Z,75
2022-09-12T15:07:53.603Z,72
2022-09-12T15:11:18.771Z,71
2022-09-12T15:14:43.937Z,70
2022-09-12T15:18:09.119Z,71
2022-09-12T15:21:35.029Z,72
2022-09-12T15:25:00.327Z,73
2022-09-12T15:28:26.180Z,73
2022-09-12T15:31:51.410Z,73
2022-09-12T15:35:16.638Z,69
2022-09-12T15:38:41.896Z,70
2022-09-12T15:42:07.084Z,70
2022-09-12T15:45:32.298Z,73
2022-09-12T15:48:57.503Z,73
2022-09-12T15:52:22.772Z,72
2022-09-12T15:55:48.014Z,70
2022-09-12T15:59:13.195Z,72
2022-09-12T16:02:38.463Z,70
2022-09-12T16:06:03.623Z,71
2022-09-12T16:09:28.813Z,72
2022-09-12T16:12:54.136Z,71
2022-09-12T16:16:19.258Z,69
2022-09-12T16:19:44.440Z,69
2022-09-12T16:23:09.668Z,69
2022-09-12T16:26:34.825Z,69
2022-09-12T16:30:00.105Z,70
2022-09-12T16:33:25.285Z,70
2022-09-12T16:36:50.466Z,71
2022-09-12T16:40:15.738Z,70
2022-09-12T16:43:40.892Z,69
2022-09-12T16:47:06.119Z,71
2022-09-12T16:50:31.329Z,73
2022-09-12T16:53:56.582Z,71
2022-09-12T16:57:21.773Z,73
2022-09-12T17:00:46.967Z,76
2022-09-12T17:04:12.238Z,77
2022-09-12T17:07:37.392Z,76
2022-09-12T17:11:02.825Z,76
2022-09-12T17:14:27.986Z,79
2022-09-12T17:17:53.274Z,79
2022-09-12T17:21:18.497Z,80
2022-09-12T17:24:43.741Z,80
2022-09-12T17:28:08.927Z,80
2022-09-12T17:31:34.201Z,80
2022-09-12T17:34:59.406Z,80
2022-09-12T17:38:25.423Z,81
2022-09-12T17:41:49.814Z,81
2022-09-12T17:45:18.245Z,81
2022-09-12T17:48:40.415Z,81
2022-09-12T17:52:05.697Z,81
2022-09-12T17:55:30.953Z,81
2022-09-12T17:58:56.099Z,80
2022-09-12T18:02:21.342Z,81
2022-09-12T18:05:49.520Z,82
2022-09-12T18:09:14.744Z,81
2022-09-12T18:12:40.111Z,82
2022-09-12T18:16:05.193Z,82
2022-09-12T18:19:30.364Z,82
2022-09-12T18:22:55.601Z,83
2022-09-12T18:26:20.832Z,83
2022-09-12T18:29:55.223Z,82
2022-09-12T18:33:11.303Z,81
2022-09-12T18:36:36.479Z,82
2022-09-12T18:40:01.804Z,82
2022-09-12T18:43:26.949Z,82
2022-09-12T18:46:52.191Z,82
2022-09-12T18:50:17.296Z,82
2022-09-12T18:53:42.574Z,82
2022-09-12T18:57:07.686Z,81
2022-09-12T19:00:32.927Z,82
2022-09-12T19:03:58.109Z,82
2022-09-12T19:07:23.270Z,82
2022-09-12T19:10:48.483Z,82
2022-09-12T19:14:13.701Z,81
2022-09-12T19:17:38.900Z,82
2022-09-12T19:21:04.116Z,81
2022-09-12T19:24:29.320Z,81
2022-09-12T19:27:54.500Z,81
2022-09-12T19:31:19.953Z,82
2022-09-12T19:34:44.904Z,81
2022-09-12T19:38:10.155Z,82
2022-09-12T19:41:35.307Z,83
2022-09-12T19:45:00.495Z,83
2022-09-12T19:48:25.811Z,83
2022-09-12T19:51:51.050Z,83
2022-09-12T19:55:16.372Z,83
2022-09-12T19:58:41.551Z,83
2022-09-12T20:02:06.901Z,84
2022-09-12T20:05:32.040Z,83
2022-09-12T20:08:57.284Z,83
2022-09-12T20:12:22.528Z,83
2022-09-12T20:15:47.829Z,83
2022-09-12T20:19:12.989Z,84
2022-09-12T20:22:40.090Z,83
2022-09-12T20:26:03.456Z,83
2022-09-12T20:29:28.713Z,83
2022-09-12T20:32:53.929Z,84
2022-09-12T20:36:19.163Z,84
2022-09-12T20:39:46.822Z,84
2022-09-12T20:43:09.660Z,84
2022-09-12T20:46:35.095Z,84
2022-09-12T20:50:00.182Z,84
2022-09-12T20:53:25.411Z,84
2022-09-12T20:56:50.645Z,84
2022-09-12T21:00:15.890Z,84
2022-09-12T21:03:41.145Z,84
2022-09-12T21:07:06.390Z,84
2022-09-12T21:10:31.621Z,84
2022-09-12T21:13:56.845Z,84
2022-09-12T21:17:22.089Z,84
2022-09-12T21:20:47.347Z,84
2022-09-12T21:24:12.543Z,84
2022-09-12T21:27:37.791Z,84
2022-09-12T21:31:03.072Z,84
2022-09-12T21:34:28.262Z,84
2022-09-12T21:37:53.539Z,84
2022-09-12T21:41:18.745Z,85
2022-09-12T21:44:43.968Z,84
2022-09-12T21:48:09.202Z,84
2022-09-12T21:51:34.429Z,84
2022-09-12T21:54:59.675Z,84
2022-09-12T21:58:24.879Z,84
2022-09-12T22:01:50.190Z,84
2022-09-12T22:05:15.365Z,84
2022-09-12T22:08:40.578Z,85
2022-09-12T22:12:05.843Z,85
2022-09-12T22:15:45.884Z,85
2022-09-12T22:18:56.260Z,84
2022-09-12T22:22:21.492Z,85
2022-09-12T22:25:46.723Z,85
2022-09-12T22:29:11.983Z,86
2022-09-12T22:32:37.142Z,85
2022-09-12T22:36:02.359Z,86
2022-09-12T22:39:27.599Z,86
2022-09-12T22:42:52.810Z,86
2022-09-12T22:46:18.068Z,86
2022-09-12T22:49:43.277Z,86
2022-09-12T22:53:08.480Z,86
2022-09-12T22:56:33.707Z,85
2022-09-12T22:59:58.925Z,85
2022-09-12T23:03:24.174Z,86
2022-09-12T23:06:49.372Z,85
2022-09-12T23:10:14.570Z,86
2022-09-12T23:13:39.762Z,86
2022-09-12T23:17:05.013Z,86
2022-09-12T23:20:30.355Z,86
2022-09-12T23:23:55.476Z,86
2022-09-12T23:27:20.689Z,85
2022-09-12T23:30:45.933Z,86
2022-09-12T23:34:11.181Z,86
2022-09-12T23:37:36.377Z,86
2022-09-12T23:41:01.579Z,86
2022-09-12T23:44:26.775Z,86
2022-09-12T23:47:51.935Z,86
2022-09-12T23:51:17.165Z,86
2022-09-12T23:54:42.427Z,85
2022-09-12T23:58:07.621Z,86
